sensor_id;sensor_type;location;lat;lon;timestamp;P1;durP1;ratioP1;P2;durP2;ratioP2
64894;SDS011;51588;53.702;10.208;2023-06-19T00:01:54;7.00;;;6.30;;
64894;SDS011;51588;53.702;10.208;2023-06-19T00:04:21;7.23;;;6.53;;
64894;SDS011;51588;53.702;10.208;2023-06-19T00:06:47;6.70;;;6.10;;
64894;SDS011;51588;53.702;10.208;2023-06-19T00:09:14;6.63;;;6.03;;
64894;SDS011;51588;53.702;10.208;2023-06-19T00:11:40;7.03;;;6.43;;
64894;SDS011;51588;53.702;10.208;2023-06-19T00:14:07;7.00;;;6.40;;
64894;SDS011;51588;53.702;10.208;2023-06-19T00:16:34;8.03;;;6.10;;
64894;SDS011;51588;53.702;10.208;2023-06-19T00:19:01;6.40;;;5.80;;
64894;SDS011;51588;53.702;10.208;2023-06-19T00:21:28;6.80;;;6.10;;
64894;SDS011;51588;53.702;10.208;2023-06-19T00:23:55;6.90;;;6.30;;
64894;SDS011;51588;53.702;10.208;2023-06-19T00:26:21;6.93;;;6.30;;
64894;SDS011;51588;53.702;10.208;2023-06-19T00:28:48;7.20;;;6.50;;
64894;SDS011;51588;53.702;10.208;2023-06-19T00:31:15;6.40;;;5.77;;
64894;SDS011;51588;53.702;10.208;2023-06-19T00:33:43;6.80;;;6.20;;
64894;SDS011;51588;53.702;10.208;2023-06-19T00:36:09;6.37;;;5.77;;
64894;SDS011;51588;53.702;10.208;2023-06-19T00:38:36;6.17;;;5.60;;
64894;SDS011;51588;53.702;10.208;2023-06-19T00:41:03;6.87;;;6.27;;
64894;SDS011;51588;53.702;10.208;2023-06-19T00:43:29;9.63;;;5.97;;
64894;SDS011;51588;53.702;10.208;2023-06-19T00:45:56;7.43;;;6.63;;
64894;SDS011;51588;53.702;10.208;2023-06-19T00:48:22;7.40;;;6.70;;
64894;SDS011;51588;53.702;10.208;2023-06-19T00:50:50;6.33;;;5.73;;
64894;SDS011;51588;53.702;10.208;2023-06-19T00:53:16;7.30;;;6.60;;
64894;SDS011;51588;53.702;10.208;2023-06-19T00:55:43;6.73;;;6.13;;
64894;SDS011;51588;53.702;10.208;2023-06-19T00:58:10;7.10;;;6.50;;
64894;SDS011;51588;53.702;10.208;2023-06-19T01:00:37;9.27;;;6.47;;
64894;SDS011;51588;53.702;10.208;2023-06-19T01:03:03;6.63;;;6.03;;
64894;SDS011;51588;53.702;10.208;2023-06-19T01:05:30;6.53;;;5.93;;
64894;SDS011;51588;53.702;10.208;2023-06-19T01:07:59;6.40;;;5.80;;
64894;SDS011;51588;53.702;10.208;2023-06-19T01:10:27;6.83;;;6.13;;
64894;SDS011;51588;53.702;10.208;2023-06-19T01:12:55;6.70;;;6.10;;
64894;SDS011;51588;53.702;10.208;2023-06-19T01:15:22;7.40;;;6.70;;
64894;SDS011;51588;53.702;10.208;2023-06-19T01:17:49;7.57;;;5.70;;
64894;SDS011;51588;53.702;10.208;2023-06-19T01:20:16;6.10;;;5.60;;
64894;SDS011;51588;53.702;10.208;2023-06-19T01:22:43;7.60;;;6.90;;
64894;SDS011;51588;53.702;10.208;2023-06-19T01:25:10;7.00;;;6.33;;
64894;SDS011;51588;53.702;10.208;2023-06-19T01:27:38;6.40;;;5.80;;
64894;SDS011;51588;53.702;10.208;2023-06-19T01:30:05;7.27;;;6.60;;
64894;SDS011;51588;53.702;10.208;2023-06-19T01:32:34;6.67;;;6.07;;
64894;SDS011;51588;53.702;10.208;2023-06-19T01:35:03;8.70;;;6.30;;
64894;SDS011;51588;53.702;10.208;2023-06-19T01:37:30;6.80;;;6.20;;
64894;SDS011;51588;53.702;10.208;2023-06-19T01:39:59;6.97;;;6.27;;
64894;SDS011;51588;53.702;10.208;2023-06-19T01:42:29;9.07;;;6.43;;
64894;SDS011;51588;53.702;10.208;2023-06-19T01:44:55;6.70;;;6.10;;
64894;SDS011;51588;53.702;10.208;2023-06-19T01:47:22;7.03;;;6.33;;
64894;SDS011;51588;53.702;10.208;2023-06-19T01:49:48;6.97;;;6.37;;
64894;SDS011;51588;53.702;10.208;2023-06-19T01:52:15;6.90;;;6.20;;
64894;SDS011;51588;53.702;10.208;2023-06-19T01:54:41;6.97;;;6.00;;
64894;SDS011;51588;53.702;10.208;2023-06-19T01:57:09;6.50;;;5.90;;
64894;SDS011;51588;53.702;10.208;2023-06-19T01:59:36;6.90;;;6.20;;
64894;SDS011;51588;53.702;10.208;2023-06-19T02:02:02;7.30;;;6.60;;
64894;SDS011;51588;53.702;10.208;2023-06-19T02:04:31;6.97;;;6.27;;
64894;SDS011;51588;53.702;10.208;2023-06-19T02:06:58;7.17;;;6.50;;
64894;SDS011;51588;53.702;10.208;2023-06-19T02:09:24;7.20;;;6.20;;
64894;SDS011;51588;53.702;10.208;2023-06-19T02:11:51;6.60;;;6.00;;
64894;SDS011;51588;53.702;10.208;2023-06-19T02:14:19;6.30;;;5.80;;
64894;SDS011;51588;53.702;10.208;2023-06-19T02:16:45;8.23;;;6.03;;
64894;SDS011;51588;53.702;10.208;2023-06-19T02:19:11;6.90;;;6.23;;
64894;SDS011;51588;53.702;10.208;2023-06-19T02:21:38;6.50;;;5.90;;
64894;SDS011;51588;53.702;10.208;2023-06-19T02:24:05;6.43;;;5.83;;
64894;SDS011;51588;53.702;10.208;2023-06-19T02:26:31;6.53;;;5.93;;
64894;SDS011;51588;53.702;10.208;2023-06-19T02:28:58;7.10;;;6.40;;
64894;SDS011;51588;53.702;10.208;2023-06-19T02:31:26;7.13;;;6.40;;
64894;SDS011;51588;53.702;10.208;2023-06-19T02:33:52;7.13;;;6.07;;
64894;SDS011;51588;53.702;10.208;2023-06-19T02:36:18;7.47;;;6.77;;
64894;SDS011;51588;53.702;10.208;2023-06-19T02:38:45;7.10;;;6.40;;
64894;SDS011;51588;53.702;10.208;2023-06-19T02:41:12;6.70;;;6.10;;
64894;SDS011;51588;53.702;10.208;2023-06-19T02:43:39;6.90;;;6.23;;
64894;SDS011;51588;53.702;10.208;2023-06-19T02:46:05;7.67;;;6.60;;
64894;SDS011;51588;53.702;10.208;2023-06-19T02:48:33;6.90;;;6.20;;
64894;SDS011;51588;53.702;10.208;2023-06-19T02:50:59;7.07;;;6.30;;
64894;SDS011;51588;53.702;10.208;2023-06-19T02:53:25;6.60;;;6.00;;
64894;SDS011;51588;53.702;10.208;2023-06-19T02:55:52;6.90;;;6.30;;
64894;SDS011;51588;53.702;10.208;2023-06-19T02:58:18;7.53;;;6.73;;
64894;SDS011;51588;53.702;10.208;2023-06-19T03:00:46;6.57;;;5.87;;
64894;SDS011;51588;53.702;10.208;2023-06-19T03:03:12;7.17;;;6.40;;
64894;SDS011;51588;53.702;10.208;2023-06-19T03:05:40;7.00;;;6.33;;
64894;SDS011;51588;53.702;10.208;2023-06-19T03:08:06;7.40;;;6.70;;
64894;SDS011;51588;53.702;10.208;2023-06-19T03:10:33;6.90;;;6.23;;
64894;SDS011;51588;53.702;10.208;2023-06-19T03:12:59;7.20;;;6.50;;
64894;SDS011;51588;53.702;10.208;2023-06-19T03:15:25;6.30;;;5.80;;
64894;SDS011;51588;53.702;10.208;2023-06-19T03:17:52;7.10;;;6.40;;
64894;SDS011;51588;53.702;10.208;2023-06-19T03:20:19;6.97;;;6.27;;
64894;SDS011;51588;53.702;10.208;2023-06-19T03:22:47;7.03;;;6.43;;
64894;SDS011;51588;53.702;10.208;2023-06-19T03:25:13;6.90;;;6.30;;
64894;SDS011;51588;53.702;10.208;2023-06-19T03:27:39;7.13;;;6.43;;
64894;SDS011;51588;53.702;10.208;2023-06-19T03:30:06;7.20;;;6.50;;
64894;SDS011;51588;53.702;10.208;2023-06-19T03:32:33;6.77;;;6.10;;
64894;SDS011;51588;53.702;10.208;2023-06-19T03:35:00;6.90;;;6.30;;
64894;SDS011;51588;53.702;10.208;2023-06-19T03:37:27;6.13;;;5.63;;
64894;SDS011;51588;53.702;10.208;2023-06-19T03:39:55;7.27;;;6.57;;
64894;SDS011;51588;53.702;10.208;2023-06-19T03:42:22;7.33;;;6.70;;
64894;SDS011;51588;53.702;10.208;2023-06-19T03:44:48;7.10;;;6.50;;
64894;SDS011;51588;53.702;10.208;2023-06-19T03:47:15;7.57;;;6.77;;
64894;SDS011;51588;53.702;10.208;2023-06-19T03:49:42;6.73;;;6.03;;
64894;SDS011;51588;53.702;10.208;2023-06-19T03:52:08;7.10;;;6.40;;
64894;SDS011;51588;53.702;10.208;2023-06-19T03:54:35;6.60;;;6.00;;
64894;SDS011;51588;53.702;10.208;2023-06-19T03:57:03;6.80;;;6.10;;
64894;SDS011;51588;53.702;10.208;2023-06-19T03:59:29;7.63;;;6.83;;
64894;SDS011;51588;53.702;10.208;2023-06-19T04:01:55;7.00;;;6.30;;
64894;SDS011;51588;53.702;10.208;2023-06-19T04:04:22;7.93;;;6.53;;
64894;SDS011;51588;53.702;10.208;2023-06-19T04:06:48;6.87;;;6.27;;
64894;SDS011;51588;53.702;10.208;2023-06-19T04:09:15;7.40;;;6.70;;
64894;SDS011;51588;53.702;10.208;2023-06-19T04:11:41;6.93;;;6.33;;
64894;SDS011;51588;53.702;10.208;2023-06-19T04:14:09;9.30;;;6.23;;
64894;SDS011;51588;53.702;10.208;2023-06-19T04:16:35;7.20;;;6.60;;
64894;SDS011;51588;53.702;10.208;2023-06-19T04:19:01;6.17;;;5.60;;
64894;SDS011;51588;53.702;10.208;2023-06-19T04:21:28;7.80;;;7.00;;
64894;SDS011;51588;53.702;10.208;2023-06-19T04:23:54;7.77;;;6.40;;
64894;SDS011;51588;53.702;10.208;2023-06-19T04:26:21;7.17;;;6.43;;
64894;SDS011;51588;53.702;10.208;2023-06-19T04:28:47;7.70;;;6.90;;
64894;SDS011;51588;53.702;10.208;2023-06-19T04:31:15;7.43;;;6.67;;
64894;SDS011;51588;53.702;10.208;2023-06-19T04:33:43;7.60;;;6.87;;
64894;SDS011;51588;53.702;10.208;2023-06-19T04:36:10;8.00;;;7.30;;
64894;SDS011;51588;53.702;10.208;2023-06-19T04:38:36;7.87;;;6.77;;
64894;SDS011;51588;53.702;10.208;2023-06-19T04:41:02;7.53;;;6.83;;
64894;SDS011;51588;53.702;10.208;2023-06-19T04:43:29;7.07;;;6.43;;
64894;SDS011;51588;53.702;10.208;2023-06-19T04:45:55;6.93;;;6.23;;
64894;SDS011;51588;53.702;10.208;2023-06-19T04:48:23;7.00;;;6.40;;
64894;SDS011;51588;53.702;10.208;2023-06-19T04:50:51;6.70;;;6.10;;
64894;SDS011;51588;53.702;10.208;2023-06-19T04:53:17;7.47;;;6.73;;
64894;SDS011;51588;53.702;10.208;2023-06-19T04:55:44;6.93;;;6.23;;
64894;SDS011;51588;53.702;10.208;2023-06-19T04:58:10;6.90;;;6.30;;
64894;SDS011;51588;53.702;10.208;2023-06-19T05:00:37;7.50;;;6.80;;
64894;SDS011;51588;53.702;10.208;2023-06-19T05:03:03;7.60;;;6.90;;
64894;SDS011;51588;53.702;10.208;2023-06-19T05:05:31;7.33;;;6.63;;
64894;SDS011;51588;53.702;10.208;2023-06-19T05:07:57;7.70;;;7.00;;
64894;SDS011;51588;53.702;10.208;2023-06-19T05:10:24;7.67;;;6.87;;
64894;SDS011;51588;53.702;10.208;2023-06-19T05:12:50;6.83;;;6.13;;
64894;SDS011;51588;53.702;10.208;2023-06-19T05:15:16;7.23;;;6.63;;
64894;SDS011;51588;53.702;10.208;2023-06-19T05:17:43;7.10;;;6.43;;
64894;SDS011;51588;53.702;10.208;2023-06-19T05:20:13;6.83;;;6.23;;
64894;SDS011;51588;53.702;10.208;2023-06-19T05:22:40;7.63;;;6.20;;
64894;SDS011;51588;53.702;10.208;2023-06-19T05:25:07;8.77;;;7.50;;
64894;SDS011;51588;53.702;10.208;2023-06-19T05:27:34;7.77;;;6.43;;
64894;SDS011;51588;53.702;10.208;2023-06-19T05:30:00;7.83;;;7.13;;
64894;SDS011;51588;53.702;10.208;2023-06-19T05:32:26;7.40;;;6.70;;
64894;SDS011;51588;53.702;10.208;2023-06-19T05:34:53;7.10;;;6.40;;
64894;SDS011;51588;53.702;10.208;2023-06-19T05:37:19;9.33;;;6.70;;
64894;SDS011;51588;53.702;10.208;2023-06-19T05:39:48;7.50;;;6.80;;
64894;SDS011;51588;53.702;10.208;2023-06-19T05:42:14;7.13;;;6.43;;
64894;SDS011;51588;53.702;10.208;2023-06-19T05:44:41;7.50;;;6.80;;
64894;SDS011;51588;53.702;10.208;2023-06-19T05:47:07;10.30;;;7.00;;
64894;SDS011;51588;53.702;10.208;2023-06-19T05:49:34;8.53;;;7.63;;
64894;SDS011;51588;53.702;10.208;2023-06-19T05:52:00;19.63;;;9.10;;
64894;SDS011;51588;53.702;10.208;2023-06-19T05:54:26;12.20;;;7.53;;
64894;SDS011;51588;53.702;10.208;2023-06-19T05:56:54;17.83;;;9.83;;
64894;SDS011;51588;53.702;10.208;2023-06-19T05:59:20;23.00;;;10.67;;
64894;SDS011;51588;53.702;10.208;2023-06-19T06:01:47;19.73;;;10.70;;
64894;SDS011;51588;53.702;10.208;2023-06-19T06:04:15;15.07;;;10.10;;
64894;SDS011;51588;53.702;10.208;2023-06-19T06:06:41;17.30;;;10.67;;
64894;SDS011;51588;53.702;10.208;2023-06-19T06:09:08;44.97;;;13.47;;
64894;SDS011;51588;53.702;10.208;2023-06-19T06:11:36;21.10;;;11.13;;
64894;SDS011;51588;53.702;10.208;2023-06-19T06:14:04;24.97;;;11.30;;
64894;SDS011;51588;53.702;10.208;2023-06-19T06:16:30;24.40;;;10.60;;
64894;SDS011;51588;53.702;10.208;2023-06-19T06:18:56;19.53;;;10.97;;
64894;SDS011;51588;53.702;10.208;2023-06-19T06:21:23;21.47;;;11.07;;
64894;SDS011;51588;53.702;10.208;2023-06-19T06:23:50;27.40;;;11.33;;
64894;SDS011;51588;53.702;10.208;2023-06-19T06:26:16;18.00;;;10.43;;
64894;SDS011;51588;53.702;10.208;2023-06-19T06:28:43;16.63;;;10.10;;
64894;SDS011;51588;53.702;10.208;2023-06-19T06:31:11;16.87;;;10.93;;
64894;SDS011;51588;53.702;10.208;2023-06-19T06:33:38;18.00;;;10.50;;
64894;SDS011;51588;53.702;10.208;2023-06-19T06:36:04;20.20;;;10.43;;
64894;SDS011;51588;53.702;10.208;2023-06-19T06:38:30;18.97;;;11.30;;
64894;SDS011;51588;53.702;10.208;2023-06-19T06:40:57;14.67;;;9.90;;
64894;SDS011;51588;53.702;10.208;2023-06-19T06:43:24;14.70;;;10.80;;
64894;SDS011;51588;53.702;10.208;2023-06-19T06:45:50;14.30;;;10.20;;
64894;SDS011;51588;53.702;10.208;2023-06-19T06:48:18;16.43;;;10.53;;
64894;SDS011;51588;53.702;10.208;2023-06-19T06:50:45;14.40;;;10.80;;
64894;SDS011;51588;53.702;10.208;2023-06-19T06:53:11;13.10;;;11.27;;
64894;SDS011;51588;53.702;10.208;2023-06-19T06:55:37;11.67;;;10.43;;
64894;SDS011;51588;53.702;10.208;2023-06-19T06:58:04;18.00;;;10.23;;
64894;SDS011;51588;53.702;10.208;2023-06-19T07:00:30;17.87;;;10.30;;
64894;SDS011;51588;53.702;10.208;2023-06-19T07:02:56;11.80;;;9.63;;
64894;SDS011;51588;53.702;10.208;2023-06-19T07:05:24;13.40;;;10.30;;
64894;SDS011;51588;53.702;10.208;2023-06-19T07:07:51;11.70;;;9.70;;
64894;SDS011;51588;53.702;10.208;2023-06-19T07:10:17;13.30;;;9.53;;
64894;SDS011;51588;53.702;10.208;2023-06-19T07:12:44;12.00;;;10.20;;
64894;SDS011;51588;53.702;10.208;2023-06-19T07:15:10;16.63;;;10.10;;
64894;SDS011;51588;53.702;10.208;2023-06-19T07:17:37;17.70;;;10.30;;
64894;SDS011;51588;53.702;10.208;2023-06-19T07:20:04;13.13;;;10.50;;
64894;SDS011;51588;53.702;10.208;2023-06-19T07:22:32;11.60;;;9.87;;
64894;SDS011;51588;53.702;10.208;2023-06-19T07:24:58;10.03;;;8.90;;
64894;SDS011;51588;53.702;10.208;2023-06-19T07:27:24;11.37;;;9.53;;
64894;SDS011;51588;53.702;10.208;2023-06-19T07:29:52;11.10;;;9.30;;
64894;SDS011;51588;53.702;10.208;2023-06-19T07:32:19;10.30;;;9.30;;
64894;SDS011;51588;53.702;10.208;2023-06-19T07:34:45;10.93;;;9.27;;
64894;SDS011;51588;53.702;10.208;2023-06-19T07:37:12;16.80;;;9.53;;
64894;SDS011;51588;53.702;10.208;2023-06-19T07:39:43;10.13;;;8.03;;
64894;SDS011;51588;53.702;10.208;2023-06-19T07:42:10;9.70;;;8.70;;
64894;SDS011;51588;53.702;10.208;2023-06-19T07:44:36;12.00;;;8.70;;
64894;SDS011;51588;53.702;10.208;2023-06-19T07:47:03;11.50;;;9.30;;
64894;SDS011;51588;53.702;10.208;2023-06-19T07:49:30;12.70;;;9.30;;
64894;SDS011;51588;53.702;10.208;2023-06-19T07:51:57;10.30;;;9.27;;
64894;SDS011;51588;53.702;10.208;2023-06-19T07:54:23;14.13;;;9.03;;
64894;SDS011;51588;53.702;10.208;2023-06-19T07:56:51;10.87;;;9.50;;
64894;SDS011;51588;53.702;10.208;2023-06-19T07:59:17;12.87;;;9.90;;
64894;SDS011;51588;53.702;10.208;2023-06-19T08:01:44;10.73;;;9.50;;
64894;SDS011;51588;53.702;10.208;2023-06-19T08:04:10;12.10;;;9.17;;
64894;SDS011;51588;53.702;10.208;2023-06-19T08:06:37;9.93;;;8.90;;
64894;SDS011;51588;53.702;10.208;2023-06-19T08:09:03;10.03;;;9.00;;
64894;SDS011;51588;53.702;10.208;2023-06-19T08:11:30;14.40;;;9.90;;
64894;SDS011;51588;53.702;10.208;2023-06-19T08:13:57;10.03;;;9.03;;
64894;SDS011;51588;53.702;10.208;2023-06-19T08:16:24;13.67;;;9.47;;
64894;SDS011;51588;53.702;10.208;2023-06-19T08:18:50;10.30;;;8.80;;
64894;SDS011;51588;53.702;10.208;2023-06-19T08:21:17;9.77;;;8.70;;
64894;SDS011;51588;53.702;10.208;2023-06-19T08:23:45;9.97;;;8.13;;
64894;SDS011;51588;53.702;10.208;2023-06-19T08:26:12;11.93;;;8.90;;
64894;SDS011;51588;53.702;10.208;2023-06-19T08:28:38;10.23;;;8.87;;
64894;SDS011;51588;53.702;10.208;2023-06-19T08:31:07;11.10;;;9.00;;
64894;SDS011;51588;53.702;10.208;2023-06-19T08:33:34;9.83;;;8.70;;
64894;SDS011;51588;53.702;10.208;2023-06-19T08:36:01;11.30;;;8.97;;
64894;SDS011;51588;53.702;10.208;2023-06-19T08:38:27;11.93;;;8.67;;
64894;SDS011;51588;53.702;10.208;2023-06-19T08:40:54;10.10;;;9.10;;
64894;SDS011;51588;53.702;10.208;2023-06-19T08:43:21;12.50;;;8.80;;
64894;SDS011;51588;53.702;10.208;2023-06-19T08:45:52;9.73;;;8.73;;
64894;SDS011;51588;53.702;10.208;2023-06-19T08:48:20;9.77;;;8.77;;
64894;SDS011;51588;53.702;10.208;2023-06-19T08:50:46;10.37;;;9.03;;
64894;SDS011;51588;53.702;10.208;2023-06-19T08:53:13;11.00;;;9.10;;
64894;SDS011;51588;53.702;10.208;2023-06-19T08:55:39;11.33;;;8.90;;
64894;SDS011;51588;53.702;10.208;2023-06-19T08:58:06;12.87;;;9.20;;
64894;SDS011;51588;53.702;10.208;2023-06-19T09:00:32;10.67;;;9.30;;
64894;SDS011;51588;53.702;10.208;2023-06-19T09:03:00;9.27;;;8.27;;
64894;SDS011;51588;53.702;10.208;2023-06-19T09:05:29;10.03;;;8.87;;
64894;SDS011;51588;53.702;10.208;2023-06-19T09:07:56;10.00;;;9.00;;
64894;SDS011;51588;53.702;10.208;2023-06-19T09:10:22;12.20;;;9.40;;
64894;SDS011;51588;53.702;10.208;2023-06-19T09:12:56;14.00;;;9.47;;
64894;SDS011;51588;53.702;10.208;2023-06-19T09:15:23;10.90;;;8.50;;
64894;SDS011;51588;53.702;10.208;2023-06-19T09:17:59;10.13;;;9.13;;
64894;SDS011;51588;53.702;10.208;2023-06-19T09:20:26;10.13;;;8.73;;
64894;SDS011;51588;53.702;10.208;2023-06-19T09:22:55;10.23;;;9.20;;
64894;SDS011;51588;53.702;10.208;2023-06-19T09:25:21;10.17;;;9.10;;
64894;SDS011;51588;53.702;10.208;2023-06-19T09:27:48;11.07;;;8.53;;
64894;SDS011;51588;53.702;10.208;2023-06-19T09:30:15;9.83;;;8.83;;
64894;SDS011;51588;53.702;10.208;2023-06-19T09:32:42;10.10;;;9.10;;
64894;SDS011;51588;53.702;10.208;2023-06-19T09:35:08;9.60;;;8.67;;
64894;SDS011;51588;53.702;10.208;2023-06-19T09:37:35;14.13;;;9.17;;
64894;SDS011;51588;53.702;10.208;2023-06-19T09:40:05;9.10;;;8.20;;
64894;SDS011;51588;53.702;10.208;2023-06-19T09:42:36;9.57;;;8.67;;
64894;SDS011;51588;53.702;10.208;2023-06-19T09:45:03;11.73;;;9.20;;
64894;SDS011;51588;53.702;10.208;2023-06-19T09:47:30;11.13;;;8.20;;
64894;SDS011;51588;53.702;10.208;2023-06-19T09:49:57;9.80;;;8.00;;
64894;SDS011;51588;53.702;10.208;2023-06-19T09:52:24;9.57;;;8.20;;
64894;SDS011;51588;53.702;10.208;2023-06-19T09:54:53;9.53;;;8.57;;
64894;SDS011;51588;53.702;10.208;2023-06-19T09:57:21;10.70;;;9.30;;
64894;SDS011;51588;53.702;10.208;2023-06-19T09:59:48;9.33;;;8.43;;
64894;SDS011;51588;53.702;10.208;2023-06-19T10:02:16;12.10;;;8.57;;
64894;SDS011;51588;53.702;10.208;2023-06-19T10:04:43;8.87;;;7.80;;
64894;SDS011;51588;53.702;10.208;2023-06-19T10:07:17;9.40;;;8.07;;
64894;SDS011;51588;53.702;10.208;2023-06-19T10:09:57;9.73;;;8.73;;
64894;SDS011;51588;53.702;10.208;2023-06-19T10:12:34;9.10;;;8.20;;
64894;SDS011;51588;53.702;10.208;2023-06-19T10:15:11;11.87;;;9.10;;
64894;SDS011;51588;53.702;10.208;2023-06-19T10:17:38;10.53;;;9.10;;
64894;SDS011;51588;53.702;10.208;2023-06-19T10:20:05;8.50;;;7.70;;
64894;SDS011;51588;53.702;10.208;2023-06-19T10:22:38;9.60;;;8.73;;
64894;SDS011;51588;53.702;10.208;2023-06-19T10:25:05;9.23;;;8.40;;
64894;SDS011;51588;53.702;10.208;2023-06-19T10:27:33;8.93;;;8.10;;
64894;SDS011;51588;53.702;10.208;2023-06-19T10:30:01;10.00;;;9.00;;
64894;SDS011;51588;53.702;10.208;2023-06-19T10:32:29;8.40;;;7.60;;
64894;SDS011;51588;53.702;10.208;2023-06-19T10:34:56;9.90;;;9.00;;
64894;SDS011;51588;53.702;10.208;2023-06-19T10:37:31;10.97;;;9.30;;
64894;SDS011;51588;53.702;10.208;2023-06-19T10:39:58;10.43;;;9.00;;
64894;SDS011;51588;53.702;10.208;2023-06-19T10:42:24;10.00;;;9.00;;
64894;SDS011;51588;53.702;10.208;2023-06-19T10:44:50;9.67;;;8.70;;
64894;SDS011;51588;53.702;10.208;2023-06-19T10:47:18;9.83;;;8.90;;
64894;SDS011;51588;53.702;10.208;2023-06-19T10:49:44;9.73;;;8.67;;
64894;SDS011;51588;53.702;10.208;2023-06-19T10:52:11;11.63;;;8.70;;
64894;SDS011;51588;53.702;10.208;2023-06-19T10:54:37;9.90;;;9.00;;
64894;SDS011;51588;53.702;10.208;2023-06-19T10:57:04;9.70;;;8.70;;
64894;SDS011;51588;53.702;10.208;2023-06-19T10:59:30;10.97;;;9.87;;
64894;SDS011;51588;53.702;10.208;2023-06-19T11:01:56;9.60;;;8.70;;
64894;SDS011;51588;53.702;10.208;2023-06-19T11:04:25;9.97;;;9.07;;
64894;SDS011;51588;53.702;10.208;2023-06-19T11:06:51;9.47;;;8.57;;
64894;SDS011;51588;53.702;10.208;2023-06-19T11:09:17;9.83;;;8.93;;
64894;SDS011;51588;53.702;10.208;2023-06-19T11:11:45;9.93;;;9.03;;
64894;SDS011;51588;53.702;10.208;2023-06-19T11:14:12;10.03;;;9.03;;
64894;SDS011;51588;53.702;10.208;2023-06-19T11:16:40;12.17;;;9.73;;
64894;SDS011;51588;53.702;10.208;2023-06-19T11:19:07;10.37;;;9.27;;
64894;SDS011;51588;53.702;10.208;2023-06-19T11:21:35;10.70;;;8.90;;
64894;SDS011;51588;53.702;10.208;2023-06-19T11:24:03;11.17;;;10.00;;
64894;SDS011;51588;53.702;10.208;2023-06-19T11:26:34;12.63;;;8.83;;
64894;SDS011;51588;53.702;10.208;2023-06-19T11:29:00;9.47;;;8.57;;
64894;SDS011;51588;53.702;10.208;2023-06-19T11:31:28;11.40;;;10.20;;
64894;SDS011;51588;53.702;10.208;2023-06-19T11:33:58;11.80;;;9.80;;
64894;SDS011;51588;53.702;10.208;2023-06-19T11:36:26;12.87;;;10.33;;
64894;SDS011;51588;53.702;10.208;2023-06-19T11:38:54;10.60;;;9.50;;
64894;SDS011;51588;53.702;10.208;2023-06-19T11:41:27;12.10;;;10.77;;
64894;SDS011;51588;53.702;10.208;2023-06-19T11:43:59;11.70;;;10.50;;
64894;SDS011;51588;53.702;10.208;2023-06-19T11:46:29;11.07;;;9.97;;
64894;SDS011;51588;53.702;10.208;2023-06-19T11:48:55;13.33;;;11.73;;
64894;SDS011;51588;53.702;10.208;2023-06-19T11:51:22;12.93;;;11.20;;
64894;SDS011;51588;53.702;10.208;2023-06-19T11:53:48;12.27;;;10.97;;
64894;SDS011;51588;53.702;10.208;2023-06-19T11:56:16;13.27;;;11.87;;
64894;SDS011;51588;53.702;10.208;2023-06-19T11:58:43;14.83;;;11.27;;
64894;SDS011;51588;53.702;10.208;2023-06-19T12:01:10;11.97;;;10.80;;
64894;SDS011;51588;53.702;10.208;2023-06-19T12:03:36;11.67;;;10.57;;
64894;SDS011;51588;53.702;10.208;2023-06-19T12:06:03;12.50;;;10.37;;
64894;SDS011;51588;53.702;10.208;2023-06-19T12:08:29;12.40;;;11.10;;
64894;SDS011;51588;53.702;10.208;2023-06-19T12:10:56;11.43;;;10.33;;
64894;SDS011;51588;53.702;10.208;2023-06-19T12:13:24;12.07;;;10.87;;
64894;SDS011;51588;53.702;10.208;2023-06-19T12:15:50;11.43;;;10.23;;
64894;SDS011;51588;53.702;10.208;2023-06-19T12:18:16;11.63;;;10.53;;
64894;SDS011;51588;53.702;10.208;2023-06-19T12:20:43;12.40;;;11.10;;
64894;SDS011;51588;53.702;10.208;2023-06-19T12:23:09;12.13;;;10.33;;
64894;SDS011;51588;53.702;10.208;2023-06-19T12:25:35;11.90;;;10.60;;
64894;SDS011;51588;53.702;10.208;2023-06-19T12:28:02;13.10;;;10.97;;
64894;SDS011;51588;53.702;10.208;2023-06-19T12:30:34;11.93;;;10.40;;
64894;SDS011;51588;53.702;10.208;2023-06-19T12:33:01;11.37;;;10.17;;
64894;SDS011;51588;53.702;10.208;2023-06-19T12:35:28;11.70;;;10.50;;
64894;SDS011;51588;53.702;10.208;2023-06-19T12:37:54;12.90;;;10.50;;
64894;SDS011;51588;53.702;10.208;2023-06-19T12:40:21;11.60;;;10.50;;
64894;SDS011;51588;53.702;10.208;2023-06-19T12:42:48;11.23;;;10.13;;
64894;SDS011;51588;53.702;10.208;2023-06-19T12:45:15;12.23;;;10.23;;
64894;SDS011;51588;53.702;10.208;2023-06-19T12:47:43;12.47;;;10.70;;
64894;SDS011;51588;53.702;10.208;2023-06-19T12:50:09;12.73;;;11.30;;
64894;SDS011;51588;53.702;10.208;2023-06-19T12:52:37;13.80;;;11.07;;
64894;SDS011;51588;53.702;10.208;2023-06-19T12:55:03;11.30;;;10.10;;
64894;SDS011;51588;53.702;10.208;2023-06-19T12:57:30;11.50;;;10.30;;
64894;SDS011;51588;53.702;10.208;2023-06-19T12:59:56;12.03;;;10.63;;
64894;SDS011;51588;53.702;10.208;2023-06-19T13:02:23;13.20;;;10.67;;
64894;SDS011;51588;53.702;10.208;2023-06-19T13:04:51;12.40;;;10.43;;
64894;SDS011;51588;53.702;10.208;2023-06-19T13:07:18;11.27;;;10.17;;
64894;SDS011;51588;53.702;10.208;2023-06-19T13:09:44;13.23;;;10.20;;
64894;SDS011;51588;53.702;10.208;2023-06-19T13:12:11;10.90;;;9.77;;
64894;SDS011;51588;53.702;10.208;2023-06-19T13:14:37;12.50;;;10.50;;
64894;SDS011;51588;53.702;10.208;2023-06-19T13:17:03;10.73;;;9.63;;
64894;SDS011;51588;53.702;10.208;2023-06-19T13:19:30;13.77;;;10.23;;
64894;SDS011;51588;53.702;10.208;2023-06-19T13:21:57;12.20;;;9.80;;
64894;SDS011;51588;53.702;10.208;2023-06-19T13:24:24;11.20;;;9.90;;
64894;SDS011;51588;53.702;10.208;2023-06-19T13:26:52;10.67;;;9.57;;
64894;SDS011;51588;53.702;10.208;2023-06-19T13:29:18;16.57;;;9.70;;
64894;SDS011;51588;53.702;10.208;2023-06-19T13:31:45;10.83;;;9.53;;
64894;SDS011;51588;53.702;10.208;2023-06-19T13:34:11;10.90;;;9.80;;
64894;SDS011;51588;53.702;10.208;2023-06-19T13:36:38;17.63;;;9.67;;
64894;SDS011;51588;53.702;10.208;2023-06-19T13:39:06;14.10;;;9.47;;
64894;SDS011;51588;53.702;10.208;2023-06-19T13:41:32;10.27;;;9.37;;
64894;SDS011;51588;53.702;10.208;2023-06-19T13:43:59;11.47;;;10.27;;
64894;SDS011;51588;53.702;10.208;2023-06-19T13:46:26;11.80;;;9.87;;
64894;SDS011;51588;53.702;10.208;2023-06-19T13:48:53;16.60;;;10.07;;
64894;SDS011;51588;53.702;10.208;2023-06-19T13:51:19;11.80;;;10.30;;
64894;SDS011;51588;53.702;10.208;2023-06-19T13:53:46;10.40;;;9.30;;
64894;SDS011;51588;53.702;10.208;2023-06-19T13:56:14;12.47;;;10.07;;
64894;SDS011;51588;53.702;10.208;2023-06-19T13:58:41;12.70;;;9.60;;
64894;SDS011;51588;53.702;10.208;2023-06-19T14:01:08;12.30;;;10.40;;
64894;SDS011;51588;53.702;10.208;2023-06-19T14:06:01;13.63;;;9.17;;
64894;SDS011;51588;53.702;10.208;2023-06-19T14:08:27;10.33;;;9.23;;
64894;SDS011;51588;53.702;10.208;2023-06-19T14:10:54;15.07;;;10.40;;
64894;SDS011;51588;53.702;10.208;2023-06-19T14:13:22;10.87;;;9.13;;
64894;SDS011;51588;53.702;10.208;2023-06-19T14:15:48;11.10;;;10.00;;
64894;SDS011;51588;53.702;10.208;2023-06-19T14:18:16;10.10;;;9.00;;
64894;SDS011;51588;53.702;10.208;2023-06-19T14:20:42;10.83;;;9.67;;
64894;SDS011;51588;53.702;10.208;2023-06-19T14:23:09;9.70;;;8.70;;
64894;SDS011;51588;53.702;10.208;2023-06-19T14:25:35;14.07;;;8.90;;
64894;SDS011;51588;53.702;10.208;2023-06-19T14:28:01;10.60;;;9.00;;